createdAt,value
2023-02-28T00:01:02.855Z,52465.98
2023-02-28T00:03:36.518Z,52467.18
2023-02-28T00:06:10.644Z,52469.19
2023-02-28T00:08:43.357Z,52477.63
2023-02-28T00:11:17.092Z,52451.11
2023-02-28T00:13:50.717Z,52474.81
2023-02-28T00:16:24.818Z,52453.92
2023-02-28T00:18:57.751Z,52472.41
2023-02-28T00:21:31.044Z,52478.43
2023-02-28T00:24:04.121Z,52480.44
2023-02-28T00:26:38.085Z,52451.51
2023-02-28T00:29:11.292Z,52468.79
2023-02-28T00:31:44.791Z,52471.60
2023-02-28T00:34:18.147Z,52494.11
2023-02-28T00:36:51.328Z,52467.98
2023-02-28T00:39:24.370Z,52473.21
2023-02-28T00:41:58.966Z,52450.30
2023-02-28T00:44:31.937Z,52463.56
2023-02-28T00:47:04.823Z,52474.41
2023-02-28T00:49:37.614Z,52466.78
2023-02-28T00:52:10.636Z,52485.27
2023-02-28T00:54:43.466Z,52465.17
2023-02-28T00:57:16.373Z,52469.19
2023-02-28T00:59:49.038Z,52454.32
2023-02-28T01:02:22.143Z,52471.60
2023-02-28T01:04:58.146Z,52470.80
2023-02-28T01:07:31.795Z,52469.20
2023-02-28T01:10:04.666Z,52457.54
2023-02-28T01:12:38.579Z,52477.23
2023-02-28T01:15:14.171Z,52467.18
2023-02-28T01:17:47.161Z,52475.22
2023-02-28T01:20:20.913Z,52486.47
2023-02-28T01:22:53.724Z,52466.38
2023-02-28T01:25:26.529Z,52472.40
2023-02-28T01:27:59.732Z,52489.69
2023-02-28T01:30:37.067Z,52466.77
2023-02-28T01:33:11.186Z,52470.79
2023-02-28T01:35:44.130Z,52481.24
2023-02-28T01:38:22.505Z,52477.23
2023-02-28T01:40:56.604Z,52482.86
2023-02-28T01:43:32.944Z,52486.88
2023-02-28T01:46:06.159Z,52463.96
2023-02-28T01:48:39.682Z,52478.03
2023-02-28T01:51:13.926Z,52484.46
2023-02-28T01:53:52.119Z,52473.61
2023-02-28T01:56:28.075Z,52474.82
2023-02-28T01:59:01.596Z,52476.43
2023-02-28T02:01:34.749Z,52490.49
2023-02-28T02:04:07.830Z,52449.09
2023-02-28T02:06:42.656Z,52479.24
2023-02-28T02:09:16.649Z,52473.21
2023-02-28T02:11:50.155Z,52477.63
2023-02-28T02:14:49.234Z,52492.90
2023-02-28T02:17:27.860Z,52487.27
2023-02-28T02:20:39.440Z,52482.85
2023-02-28T02:23:40.231Z,52472.80
2023-02-28T02:26:37.883Z,52483.25
2023-02-28T02:29:33.195Z,52486.07
2023-02-28T02:32:21.352Z,52476.43
2023-02-28T02:34:59.544Z,52478.83
2023-02-28T02:37:39.040Z,52486.07
2023-02-28T02:40:16.002Z,52474.82
2023-02-28T02:42:53.536Z,52487.68
2023-02-28T02:45:37.010Z,52484.46
2023-02-28T02:48:11.086Z,52477.23
2023-02-28T02:50:46.067Z,52476.82
2023-02-28T02:53:20.429Z,52472.80
2023-02-28T02:55:55.687Z,52479.24
2023-02-28T02:58:31.754Z,52493.30
2023-02-28T03:01:05.521Z,52477.63
2023-02-28T03:03:39.581Z,52491.29
2023-02-28T03:06:12.836Z,52481.25
2023-02-28T03:08:46.918Z,52479.64
2023-02-28T03:11:21.925Z,52473.61
2023-02-28T03:14:17.134Z,52480.04
2023-02-28T03:17:00.087Z,52485.67
2023-02-28T03:19:50.413Z,52490.49
2023-02-28T03:22:32.873Z,52485.26
2023-02-28T03:25:09.249Z,52478.03
2023-02-28T03:27:44.011Z,52495.71
2023-02-28T03:30:23.046Z,52480.04
2023-02-28T03:32:59.062Z,52490.49
2023-02-28T03:35:33.507Z,52485.66
2023-02-28T03:38:10.225Z,52497.32
2023-02-28T03:40:46.983Z,52476.82
2023-02-28T03:43:22.693Z,52488.07
2023-02-28T03:45:56.187Z,52467.99
2023-02-28T03:48:32.781Z,52488.88
2023-02-28T03:51:06.079Z,52507.37
2023-02-28T03:53:40.444Z,52497.73
2023-02-28T03:56:16.742Z,52487.68
2023-02-28T03:58:52.365Z,52497.73
2023-02-28T04:01:28.269Z,52484.86
2023-02-28T04:04:01.663Z,52490.09
2023-02-28T04:06:35.165Z,52510.18
2023-02-28T04:09:09.166Z,52507.77
2023-02-28T04:11:46.302Z,52502.54
2023-02-28T04:14:19.562Z,52499.73
2023-02-28T04:16:53.609Z,52499.33
2023-02-28T04:19:26.803Z,52489.69
2023-02-28T04:22:00.143Z,52497.32
2023-02-28T04:24:33.088Z,52487.27
2023-02-28T04:27:07.748Z,52494.51
2023-02-28T04:29:40.844Z,52510.59
2023-02-28T04:32:14.133Z,52492.90
2023-02-28T04:34:48.376Z,52499.33
2023-02-28T04:37:21.666Z,52497.73
2023-02-28T04:39:55.772Z,52500.54
2023-02-28T04:42:28.601Z,52509.38
2023-02-28T04:45:01.316Z,52508.98
2023-02-28T04:47:34.380Z,52504.55
2023-02-28T04:50:07.741Z,52497.73
2023-02-28T04:52:42.472Z,52490.49
2023-02-28T04:55:15.843Z,52497.73
2023-02-28T04:57:48.636Z,52491.29
2023-02-28T05:00:22.866Z,52490.49
2023-02-28T05:02:55.887Z,52505.76
2023-02-28T05:05:30.240Z,52507.77
2023-02-28T05:08:03.366Z,52498.52
2023-02-28T05:10:36.266Z,52519.83
2023-02-28T05:13:11.607Z,52488.48
2023-02-28T05:15:44.993Z,52511.79
2023-02-28T05:18:18.784Z,52489.69
2023-02-28T05:20:51.657Z,52502.14
2023-02-28T05:23:25.025Z,52491.29
2023-02-28T05:25:58.366Z,52485.67
2023-02-28T05:28:32.255Z,52508.18
2023-02-28T05:31:05.727Z,52491.70
2023-02-28T05:33:39.092Z,52493.71
2023-02-28T05:36:12.934Z,52498.93
2023-02-28T05:38:46.758Z,52478.03
2023-02-28T05:41:23.378Z,52486.07
2023-02-28T05:43:56.848Z,52479.24
2023-02-28T05:46:29.851Z,52490.49
2023-02-28T05:49:03.802Z,52494.11
2023-02-28T05:51:37.522Z,52485.26
2023-02-28T05:54:13.897Z,52481.64
2023-02-28T05:56:49.316Z,52487.68
2023-02-28T05:59:22.746Z,52492.50
2023-02-28T06:01:56.631Z,52487.68
2023-02-28T06:04:32.097Z,52495.31
2023-02-28T06:07:08.482Z,52510.99
2023-02-28T06:09:45.975Z,52498.13
2023-02-28T06:12:19.052Z,52492.50
2023-02-28T06:14:52.473Z,52493.71
2023-02-28T06:17:31.358Z,52481.65
2023-02-28T06:20:04.320Z,52488.07
2023-02-28T06:22:40.670Z,52497.73
2023-02-28T06:25:14.749Z,52499.74
2023-02-28T06:27:49.275Z,52481.65
2023-02-28T06:30:25.144Z,52494.11
2023-02-28T06:32:58.498Z,52498.13
2023-02-28T06:35:32.269Z,52488.07
2023-02-28T06:38:05.637Z,52493.30
2023-02-28T06:40:39.580Z,52487.27
2023-02-28T06:43:14.596Z,52500.54
2023-02-28T06:45:48.461Z,52502.95
2023-02-28T06:48:27.948Z,52493.70
2023-02-28T06:51:08.396Z,52488.07
2023-02-28T06:53:41.869Z,52476.82
2023-02-28T06:56:16.493Z,52470.80
2023-02-28T06:58:51.687Z,52486.88
2023-02-28T07:01:25.779Z,52489.28
2023-02-28T07:03:58.844Z,52492.50
2023-02-28T07:06:31.752Z,52477.23
2023-02-28T07:09:06.460Z,52493.30
2023-02-28T07:11:39.323Z,52476.82
2023-02-28T07:14:12.612Z,52498.52
2023-02-28T07:16:47.438Z,52487.27
2023-02-28T07:19:21.479Z,52497.32
2023-02-28T07:21:54.869Z,52491.29
2023-02-28T07:24:30.277Z,52495.31
2023-02-28T07:27:04.440Z,52502.14
2023-02-28T07:29:38.549Z,52484.46
2023-02-28T07:32:11.851Z,52480.84
2023-02-28T07:34:45.892Z,52492.90
2023-02-28T07:37:22.170Z,52482.85
2023-02-28T07:39:55.932Z,52490.49
2023-02-28T07:42:29.187Z,52467.98
2023-02-28T07:45:02.408Z,52472.00
2023-02-28T07:47:35.523Z,52471.20
2023-02-28T07:50:11.617Z,52470.39
2023-02-28T07:52:44.670Z,52467.99
2023-02-28T07:55:18.221Z,52478.03
2023-02-28T07:57:50.988Z,52463.96
2023-02-28T08:00:25.488Z,52476.82
2023-02-28T08:02:59.392Z,52470.39
2023-02-28T08:05:32.538Z,52461.55
2023-02-28T08:08:05.571Z,52457.13
2023-02-28T08:10:39.911Z,52455.13
2023-02-28T08:13:13.232Z,52473.21
2023-02-28T08:15:50.887Z,52461.55
2023-02-28T08:18:25.054Z,52449.09
2023-02-28T08:20:58.781Z,52463.16
2023-02-28T08:23:32.462Z,52467.99
2023-02-28T08:26:06.105Z,52472.80
2023-02-28T08:28:39.993Z,52483.66
2023-02-28T08:31:14.955Z,52445.07
2023-02-28T08:33:54.458Z,52466.78
2023-02-28T08:36:29.960Z,52466.77
2023-02-28T08:39:03.026Z,52451.11
2023-02-28T08:41:36.032Z,52462.36
2023-02-28T08:44:09.322Z,52455.52
2023-02-28T08:46:42.662Z,52450.30
2023-02-28T08:49:15.647Z,52453.52
2023-02-28T08:51:49.408Z,52443.06
2023-02-28T08:54:24.249Z,52475.63
2023-02-28T08:56:57.680Z,52458.34
2023-02-28T08:59:30.761Z,52447.09
2023-02-28T09:02:07.889Z,52458.74
2023-02-28T09:04:43.096Z,52461.95
2023-02-28T09:07:15.834Z,52461.15
2023-02-28T09:09:56.781Z,52467.98
2023-02-28T09:12:30.175Z,52456.32
2023-02-28T09:15:03.361Z,52430.21
2023-02-28T09:17:37.099Z,52453.11
2023-02-28T09:20:14.633Z,52455.13
2023-02-28T09:22:48.225Z,52461.15
2023-02-28T09:25:21.673Z,52448.29
2023-02-28T09:27:54.701Z,52467.18
2023-02-28T09:30:27.780Z,52465.98
2023-02-28T09:33:01.959Z,52470.79
2023-02-28T09:35:35.065Z,52452.71
2023-02-28T09:38:08.842Z,52460.75
2023-02-28T09:40:48.463Z,52463.56
2023-02-28T09:43:22.622Z,52463.97
2023-02-28T09:46:02.078Z,52461.15
2023-02-28T09:48:40.043Z,52461.96
2023-02-28T09:51:18.433Z,52467.58
2023-02-28T09:53:56.652Z,52450.71
2023-02-28T09:56:38.758Z,52468.38
2023-02-28T09:59:17.689Z,52464.37
2023-02-28T10:01:54.187Z,52461.55
2023-02-28T10:04:37.770Z,52467.18
2023-02-28T10:07:19.254Z,52468.79
2023-02-28T10:09:54.796Z,52452.31
2023-02-28T10:12:27.859Z,52455.93
2023-02-28T10:15:01.570Z,52465.17
2023-02-28T10:17:49.333Z,52457.54
2023-02-28T10:20:32.356Z,52463.56
2023-02-28T10:23:11.630Z,52453.11
2023-02-28T10:25:49.258Z,52455.93
2023-02-28T10:28:22.336Z,52456.73
2023-02-28T10:30:56.257Z,52456.32
2023-02-28T10:33:32.677Z,52455.13
2023-02-28T10:36:07.955Z,52449.09
2023-02-28T10:38:41.895Z,52458.34
2023-02-28T10:41:16.117Z,52463.16
2023-02-28T10:43:48.735Z,52432.61
2023-02-28T10:46:28.120Z,52424.18
2023-02-28T10:49:07.998Z,52454.73
2023-02-28T10:51:42.804Z,52441.86
2023-02-28T10:54:23.315Z,52439.45
2023-02-28T10:57:17.363Z,52449.50
2023-02-28T10:59:50.585Z,52466.38
2023-02-28T11:02:36.816Z,52471.60
2023-02-28T11:05:28.157Z,52470.80
2023-02-28T11:08:06.182Z,52458.74
2023-02-28T11:10:39.190Z,52461.16
2023-02-28T11:13:21.739Z,52438.65
2023-02-28T11:15:59.172Z,52460.35
2023-02-28T11:18:33.721Z,52445.88
2023-02-28T11:21:06.942Z,52459.14
2023-02-28T11:23:42.540Z,52446.68
2023-02-28T11:26:15.632Z,52432.22
2023-02-28T11:28:49.021Z,52462.76
2023-02-28T11:31:23.719Z,52451.91
2023-02-28T11:33:57.664Z,52460.35
2023-02-28T11:36:31.715Z,52450.70
2023-02-28T11:39:10.450Z,52444.68
2023-02-28T11:41:53.310Z,52448.70
2023-02-28T11:44:34.359Z,52446.28
2023-02-28T11:47:12.062Z,52460.35
2023-02-28T11:49:48.647Z,52465.97
2023-02-28T11:52:28.868Z,52442.26
2023-02-28T11:55:17.363Z,52447.49
2023-02-28T11:58:12.603Z,52463.16
2023-02-28T12:00:52.611Z,52472.40
2023-02-28T12:03:32.380Z,52457.94
2023-02-28T12:06:16.315Z,52453.52
2023-02-28T12:08:54.038Z,52457.94
2023-02-28T12:11:37.970Z,52478.83
2023-02-28T12:14:33.615Z,52471.20
2023-02-28T12:17:14.944Z,52457.94
2023-02-28T12:19:50.228Z,52468.39
2023-02-28T12:22:34.488Z,52454.73
2023-02-28T12:25:38.721Z,52475.22
2023-02-28T12:28:12.560Z,52455.52
2023-02-28T12:30:52.174Z,52469.59
2023-02-28T12:33:31.438Z,52456.73
2023-02-28T12:36:11.355Z,52446.28
2023-02-28T12:39:01.766Z,52477.23
2023-02-28T12:41:39.452Z,52470.40
2023-02-28T12:44:20.100Z,52455.93
2023-02-28T12:46:54.203Z,52470.80
2023-02-28T12:49:32.128Z,52465.18
2023-02-28T12:52:06.405Z,52452.71
2023-02-28T12:54:40.673Z,52448.70
2023-02-28T12:57:17.954Z,52457.94
2023-02-28T12:59:53.173Z,52453.92
2023-02-28T13:02:45.684Z,52457.13
2023-02-28T13:05:49.250Z,52479.64
2023-02-28T13:08:33.435Z,52452.30
2023-02-28T13:11:13.108Z,52450.30
2023-02-28T13:13:55.395Z,52442.26
2023-02-28T13:16:28.208Z,52460.35
2023-02-28T13:19:15.471Z,52461.55
2023-02-28T13:21:49.952Z,52448.70
2023-02-28T13:24:42.055Z,52443.88
2023-02-28T13:27:27.187Z,52434.63
2023-02-28T13:30:00.396Z,52453.52
2023-02-28T13:32:40.818Z,52437.84
2023-02-28T13:35:47.472Z,52429.00
2023-02-28T13:38:37.245Z,52430.21
2023-02-28T13:41:46.762Z,52427.39
2023-02-28T13:44:24.175Z,52426.99
2023-02-28T13:47:25.991Z,52436.64
2023-02-28T13:49:59.229Z,52459.14
2023-02-28T13:52:32.576Z,52441.06
2023-02-28T13:55:30.616Z,52468.79
2023-02-28T13:58:13.969Z,52445.48
2023-02-28T14:01:05.722Z,52451.51
2023-02-28T14:03:47.408Z,52454.32
2023-02-28T14:06:20.290Z,52469.59
2023-02-28T14:08:57.958Z,52467.58
2023-02-28T14:11:34.427Z,52456.32
2023-02-28T14:14:07.770Z,52465.57
2023-02-28T14:16:43.930Z,52450.71
2023-02-28T14:19:22.013Z,52454.32
2023-02-28T14:22:05.401Z,52465.57
2023-02-28T14:24:54.260Z,52462.36
2023-02-28T14:27:43.448Z,52476.02
2023-02-28T14:30:48.593Z,52473.21
2023-02-28T14:33:41.210Z,52463.96
2023-02-28T14:36:21.742Z,52469.99
2023-02-28T14:38:56.048Z,52481.65
2023-02-28T14:41:36.587Z,52473.21
2023-02-28T14:44:19.997Z,52462.76
2023-02-28T14:46:54.814Z,52481.65
2023-02-28T14:49:28.674Z,52470.80
2023-02-28T14:52:11.239Z,52474.01
2023-02-28T14:54:44.184Z,52482.85
2023-02-28T14:57:27.281Z,52461.15
2023-02-28T15:00:13.172Z,52479.24
2023-02-28T15:02:47.017Z,52461.15
2023-02-28T15:05:28.548Z,52498.52
2023-02-28T15:08:13.360Z,52469.99
2023-02-28T15:10:47.063Z,52471.60
2023-02-28T15:13:19.903Z,52477.23
2023-02-28T15:16:03.866Z,52473.61
2023-02-28T15:18:49.292Z,52476.02
2023-02-28T15:21:22.709Z,52476.02
2023-02-28T15:23:56.422Z,52468.39
2023-02-28T15:26:30.120Z,52476.02
2023-02-28T15:29:06.354Z,52472.00
2023-02-28T15:31:56.483Z,52476.82
2023-02-28T15:34:42.225Z,52483.66
2023-02-28T15:37:40.841Z,52484.46
2023-02-28T15:40:19.277Z,52488.48
2023-02-28T15:43:08.696Z,52478.84
2023-02-28T15:45:43.310Z,52479.24
2023-02-28T15:48:21.501Z,52484.05
2023-02-28T15:50:56.212Z,52496.52
2023-02-28T15:53:33.685Z,52470.39
2023-02-28T15:56:09.731Z,52476.82
2023-02-28T15:58:43.740Z,52466.77
2023-02-28T16:01:26.275Z,52482.05
2023-02-28T16:03:59.746Z,52476.82
2023-02-28T16:06:43.290Z,52480.45
2023-02-28T16:09:20.795Z,52482.86
2023-02-28T16:11:55.354Z,52476.43
2023-02-28T16:14:31.559Z,52467.18
2023-02-28T16:17:10.028Z,52473.21
2023-02-28T16:19:43.297Z,52494.91
2023-02-28T16:22:16.876Z,52487.68
2023-02-28T16:24:50.843Z,52488.07
2023-02-28T16:27:27.675Z,52493.71
2023-02-28T16:30:00.561Z,52482.45
2023-02-28T16:32:34.118Z,52470.80
2023-02-28T16:35:12.202Z,52492.90
2023-02-28T16:37:45.109Z,52504.15
2023-02-28T16:40:22.257Z,52500.54
2023-02-28T16:42:56.605Z,52488.07
2023-02-28T16:45:30.477Z,52503.35
2023-02-28T16:48:04.325Z,52492.90
2023-02-28T16:50:37.846Z,52508.98
2023-02-28T16:53:10.773Z,52491.70
2023-02-28T16:55:44.704Z,52501.74
2023-02-28T16:58:20.519Z,52490.49
2023-02-28T17:00:54.527Z,52491.29
2023-02-28T17:03:34.019Z,52507.77
2023-02-28T17:06:08.352Z,52497.32
2023-02-28T17:08:41.853Z,52497.73
2023-02-28T17:11:14.615Z,52492.90
2023-02-28T17:13:47.456Z,52510.19
2023-02-28T17:16:25.365Z,52518.62
2023-02-28T17:18:59.548Z,52491.29
2023-02-28T17:21:32.685Z,52502.54
2023-02-28T17:24:07.041Z,52514.61
2023-02-28T17:26:39.746Z,52482.05
2023-02-28T17:29:18.273Z,52500.13
2023-02-28T17:31:52.123Z,52507.77
2023-02-28T17:34:24.864Z,52517.01
2023-02-28T17:36:59.089Z,52511.79
2023-02-28T17:39:32.170Z,52508.17
2023-02-28T17:42:05.151Z,52521.44
2023-02-28T17:44:39.840Z,52510.99
2023-02-28T17:47:14.419Z,52519.02
2023-02-28T17:49:47.969Z,52525.46
2023-02-28T17:52:23.201Z,52521.43
2023-02-28T17:54:56.868Z,52529.47
2023-02-28T17:57:30.064Z,52516.21
2023-02-28T18:00:07.836Z,52525.86
2023-02-28T18:02:49.969Z,52547.55
2023-02-28T18:05:24.920Z,52521.03
2023-02-28T18:07:58.332Z,52536.71
2023-02-28T18:10:34.414Z,52522.24
2023-02-28T18:13:07.959Z,52531.08
2023-02-28T18:15:41.083Z,52531.08
2023-02-28T18:18:15.717Z,52524.25
2023-02-28T18:20:51.080Z,52525.46
2023-02-28T18:23:24.891Z,52513.80
2023-02-28T18:25:59.301Z,52531.48
2023-02-28T18:28:35.024Z,52531.08
2023-02-28T18:31:12.801Z,52529.07
2023-02-28T18:33:46.012Z,52526.66
2023-02-28T18:36:18.850Z,52545.55
2023-02-28T18:38:52.025Z,52528.27
2023-02-28T18:41:26.485Z,52535.91
2023-02-28T18:44:01.279Z,52525.05
2023-02-28T18:46:36.488Z,52525.86
2023-02-28T18:49:09.180Z,52521.03
2023-02-28T18:51:45.550Z,52519.02
2023-02-28T18:54:19.474Z,52520.63
2023-02-28T18:56:54.340Z,52522.64
2023-02-28T18:59:27.636Z,52530.27
2023-02-28T19:02:00.708Z,52517.82
2023-02-28T19:04:33.801Z,52532.69
2023-02-28T19:07:11.074Z,52527.46
2023-02-28T19:09:47.797Z,52541.52
2023-02-28T19:12:20.906Z,52545.96
2023-02-28T19:14:55.584Z,52539.52
2023-02-28T19:17:28.784Z,52544.74
2023-02-28T19:20:01.946Z,52525.86
2023-02-28T19:22:35.083Z,52543.14
2023-02-28T19:25:09.537Z,52523.45
2023-02-28T19:27:43.028Z,52531.89
2023-02-28T19:30:16.612Z,52523.85
2023-02-28T19:32:49.757Z,52527.46
2023-02-28T19:35:22.528Z,52529.47
2023-02-28T19:37:55.584Z,52538.31
2023-02-28T19:40:28.320Z,52522.64
2023-02-28T19:43:05.391Z,52532.29
2023-02-28T19:45:42.279Z,52536.30
2023-02-28T19:48:15.535Z,52524.65
2023-02-28T19:50:48.394Z,52532.69
2023-02-28T19:53:21.797Z,52531.88
2023-02-28T19:55:54.967Z,52529.88
2023-02-28T19:58:29.054Z,52533.89
2023-02-28T20:01:08.807Z,52534.29
2023-02-28T20:03:42.644Z,52551.58
2023-02-28T20:06:15.846Z,52536.30
2023-02-28T20:08:49.248Z,52544.34
2023-02-28T20:11:24.306Z,52557.61
2023-02-28T20:14:00.844Z,52531.08
2023-02-28T20:16:35.063Z,52556.00
2023-02-28T20:19:08.434Z,52543.95
2023-02-28T20:21:44.440Z,52535.90
2023-02-28T20:24:21.297Z,52540.73
2023-02-28T20:26:54.369Z,52532.69
2023-02-28T20:29:27.563Z,52537.11
2023-02-28T20:32:01.005Z,52547.96
2023-02-28T20:34:34.327Z,52546.76
2023-02-28T20:37:07.218Z,52534.70
2023-02-28T20:39:40.453Z,52535.10
2023-02-28T20:42:13.354Z,52545.15
2023-02-28T20:44:46.304Z,52544.34
2023-02-28T20:47:19.868Z,52531.08
2023-02-28T20:49:53.594Z,52548.36
2023-02-28T20:52:26.427Z,52534.70
2023-02-28T20:54:59.549Z,52543.54
2023-02-28T20:57:33.454Z,52523.84
2023-02-28T21:00:09.605Z,52560.42
2023-02-28T21:02:44.516Z,52533.49
2023-02-28T21:05:18.139Z,52552.78
2023-02-28T21:07:51.078Z,52549.16
2023-02-28T21:10:24.458Z,52559.21
2023-02-28T21:12:58.323Z,52544.34
2023-02-28T21:15:31.271Z,52544.74
2023-02-28T21:18:04.664Z,52539.52
2023-02-28T21:20:37.635Z,52542.74
2023-02-28T21:23:12.515Z,52549.16
2023-02-28T21:25:45.930Z,52554.79
2023-02-28T21:28:23.656Z,52553.19
2023-02-28T21:30:56.514Z,52555.59
2023-02-28T21:33:30.419Z,52550.77
2023-02-28T21:36:07.658Z,52556.00
2023-02-28T21:38:40.998Z,52548.76
2023-02-28T21:41:14.476Z,52541.13
2023-02-28T21:43:48.083Z,52551.18
2023-02-28T21:46:24.606Z,52553.99
2023-02-28T21:48:57.638Z,52556.40
2023-02-28T21:51:31.645Z,52556.80
2023-02-28T21:54:04.902Z,52546.35
2023-02-28T21:56:37.706Z,52536.71
2023-02-28T21:59:11.408Z,52558.81
2023-02-28T22:01:45.081Z,52549.56
2023-02-28T22:04:22.771Z,52549.17
2023-02-28T22:06:58.671Z,52563.64
2023-02-28T22:09:32.511Z,52543.14
2023-02-28T22:12:08.674Z,52544.34
2023-02-28T22:14:45.570Z,52560.02
2023-02-28T22:17:19.191Z,52548.77
2023-02-28T22:19:52.538Z,52551.18
2023-02-28T22:22:28.792Z,52553.99
2023-02-28T22:25:01.714Z,52557.21
2023-02-28T22:27:34.741Z,52560.82
2023-02-28T22:30:08.754Z,52547.16
2023-02-28T22:32:41.927Z,52568.05
2023-02-28T22:35:14.713Z,52558.01
2023-02-28T22:37:47.878Z,52551.18
2023-02-28T22:40:21.314Z,52575.29
2023-02-28T22:42:55.605Z,52564.04
2023-02-28T22:45:28.725Z,52566.45
2023-02-28T22:48:02.201Z,52560.02
2023-02-28T22:50:35.347Z,52556.00
2023-02-28T22:53:08.218Z,52563.23
2023-02-28T22:55:41.257Z,52547.16
2023-02-28T22:58:14.331Z,52564.84
2023-02-28T23:00:47.197Z,52559.22
2023-02-28T23:03:21.170Z,52548.36
2023-02-28T23:05:54.305Z,52558.41
2023-02-28T23:08:27.069Z,52539.93
2023-02-28T23:11:01.072Z,52563.23
2023-02-28T23:13:33.827Z,52568.86
2023-02-28T23:16:10.816Z,52554.39
2023-02-28T23:18:43.582Z,52544.75
2023-02-28T23:21:16.304Z,52558.01
2023-02-28T23:23:49.040Z,52545.15
2023-02-28T23:26:21.844Z,52557.21
2023-02-28T23:28:54.581Z,52566.04
2023-02-28T23:31:27.412Z,52556.80
2023-02-28T23:34:00.782Z,52557.61
2023-02-28T23:36:37.216Z,52567.25
2023-02-28T23:39:10.228Z,52564.04
2023-02-28T23:41:43.124Z,52553.59
2023-02-28T23:44:17.272Z,52549.97
2023-02-28T23:46:51.653Z,52564.44
2023-02-28T23:49:24.565Z,52564.04
2023-02-28T23:51:57.880Z,52553.19
2023-02-28T23:54:35.185Z,52559.61
2023-02-28T23:57:08.772Z,52572.88
